sensor_id;sensor_type;location;lat;lon;timestamp;P1;durP1;ratioP1;P2;durP2;ratioP2
46180;SDS011;58963;50.438;30.594;2022-10-16T00:00:58;26.20;;;16.65;;
46180;SDS011;58963;50.438;30.594;2022-10-16T00:06:24;25.83;;;15.98;;
46180;SDS011;58963;50.438;30.594;2022-10-16T00:11:44;22.10;;;15.70;;
46180;SDS011;58963;50.438;30.594;2022-10-16T00:17:04;23.70;;;16.73;;
46180;SDS011;58963;50.438;30.594;2022-10-16T00:22:23;22.67;;;15.43;;
46180;SDS011;58963;50.438;30.594;2022-10-16T00:27:42;23.23;;;15.15;;
46180;SDS011;58963;50.438;30.594;2022-10-16T00:33:01;22.70;;;15.15;;
46180;SDS011;58963;50.438;30.594;2022-10-16T00:38:20;21.17;;;14.25;;
46180;SDS011;58963;50.438;30.594;2022-10-16T00:43:44;24.35;;;13.70;;
46180;SDS011;58963;50.438;30.594;2022-10-16T00:49:10;23.98;;;14.25;;
46180;SDS011;58963;50.438;30.594;2022-10-16T00:54:35;21.15;;;13.23;;
46180;SDS011;58963;50.438;30.594;2022-10-16T00:59:54;20.70;;;13.68;;
46180;SDS011;58963;50.438;30.594;2022-10-16T01:05:14;19.95;;;13.23;;
46180;SDS011;58963;50.438;30.594;2022-10-16T01:11:10;20.40;;;13.85;;
46180;SDS011;58963;50.438;30.594;2022-10-16T01:16:31;21.05;;;13.02;;
46180;SDS011;58963;50.438;30.594;2022-10-16T01:22:02;17.33;;;12.43;;
46180;SDS011;58963;50.438;30.594;2022-10-16T01:27:25;17.33;;;12.18;;
46180;SDS011;58963;50.438;30.594;2022-10-16T01:43:33;18.42;;;12.98;;
46180;SDS011;58963;50.438;30.594;2022-10-16T01:48:59;20.40;;;12.68;;
46180;SDS011;58963;50.438;30.594;2022-10-16T01:54:20;20.38;;;13.38;;
46180;SDS011;58963;50.438;30.594;2022-10-16T01:59:46;21.58;;;13.60;;
46180;SDS011;58963;50.438;30.594;2022-10-16T02:11:00;20.17;;;12.93;;
46180;SDS011;58963;50.438;30.594;2022-10-16T02:16:20;19.08;;;12.90;;
46180;SDS011;58963;50.438;30.594;2022-10-16T02:21:41;18.45;;;12.85;;
46180;SDS011;58963;50.438;30.594;2022-10-16T02:27:06;21.30;;;13.35;;
46180;SDS011;58963;50.438;30.594;2022-10-16T02:33:00;22.10;;;13.88;;
46180;SDS011;58963;50.438;30.594;2022-10-16T02:38:21;24.80;;;14.43;;
46180;SDS011;58963;50.438;30.594;2022-10-16T02:43:41;18.20;;;12.82;;
46180;SDS011;58963;50.438;30.594;2022-10-16T02:49:00;20.17;;;12.95;;
46180;SDS011;58963;50.438;30.594;2022-10-16T02:54:20;17.80;;;12.98;;
46180;SDS011;58963;50.438;30.594;2022-10-16T02:59:39;22.80;;;13.00;;
46180;SDS011;58963;50.438;30.594;2022-10-16T03:04:59;19.92;;;13.73;;
46180;SDS011;58963;50.438;30.594;2022-10-16T03:10:18;17.75;;;12.32;;
46180;SDS011;58963;50.438;30.594;2022-10-16T03:15:37;21.08;;;13.00;;
46180;SDS011;58963;50.438;30.594;2022-10-16T03:20:57;25.25;;;13.90;;
46180;SDS011;58963;50.438;30.594;2022-10-16T03:26:16;32.55;;;15.43;;
46180;SDS011;58963;50.438;30.594;2022-10-16T03:31:35;19.80;;;11.70;;
46180;SDS011;58963;50.438;30.594;2022-10-16T03:36:54;17.25;;;12.15;;
46180;SDS011;58963;50.438;30.594;2022-10-16T03:42:14;19.73;;;12.35;;
46180;SDS011;58963;50.438;30.594;2022-10-16T03:47:33;17.13;;;11.50;;
46180;SDS011;58963;50.438;30.594;2022-10-16T03:52:52;16.35;;;11.90;;
46180;SDS011;58963;50.438;30.594;2022-10-16T03:58:11;18.52;;;11.60;;
46180;SDS011;58963;50.438;30.594;2022-10-16T04:03:31;18.70;;;12.15;;
46180;SDS011;58963;50.438;30.594;2022-10-16T04:08:50;18.77;;;12.05;;
46180;SDS011;58963;50.438;30.594;2022-10-16T04:14:09;24.08;;;12.20;;
46180;SDS011;58963;50.438;30.594;2022-10-16T04:19:29;18.60;;;11.70;;
46180;SDS011;58963;50.438;30.594;2022-10-16T04:24:48;15.85;;;11.13;;
46180;SDS011;58963;50.438;30.594;2022-10-16T04:30:07;19.45;;;12.63;;
46180;SDS011;58963;50.438;30.594;2022-10-16T04:35:27;17.55;;;11.48;;
46180;SDS011;58963;50.438;30.594;2022-10-16T04:40:46;18.90;;;11.82;;
46180;SDS011;58963;50.438;30.594;2022-10-16T04:46:05;18.05;;;11.15;;
46180;SDS011;58963;50.438;30.594;2022-10-16T04:51:25;22.90;;;14.60;;
46180;SDS011;58963;50.438;30.594;2022-10-16T04:56:47;27.67;;;14.57;;
46180;SDS011;58963;50.438;30.594;2022-10-16T05:02:09;18.80;;;12.55;;
46180;SDS011;58963;50.438;30.594;2022-10-16T05:07:28;20.42;;;11.85;;
46180;SDS011;58963;50.438;30.594;2022-10-16T05:12:47;18.92;;;12.18;;
46180;SDS011;58963;50.438;30.594;2022-10-16T05:18:08;21.73;;;12.52;;
46180;SDS011;58963;50.438;30.594;2022-10-16T05:23:28;18.33;;;11.82;;
46180;SDS011;58963;50.438;30.594;2022-10-16T05:28:47;20.48;;;11.77;;
46180;SDS011;58963;50.438;30.594;2022-10-16T05:34:07;16.70;;;11.60;;
46180;SDS011;58963;50.438;30.594;2022-10-16T05:39:30;16.27;;;11.27;;
46180;SDS011;58963;50.438;30.594;2022-10-16T05:44:49;22.60;;;12.55;;
46180;SDS011;58963;50.438;30.594;2022-10-16T05:50:08;17.23;;;11.32;;
46180;SDS011;58963;50.438;30.594;2022-10-16T05:55:32;15.50;;;11.77;;
46180;SDS011;58963;50.438;30.594;2022-10-16T06:06:19;13.82;;;10.50;;
46180;SDS011;58963;50.438;30.594;2022-10-16T06:11:39;14.35;;;11.10;;
46180;SDS011;58963;50.438;30.594;2022-10-16T06:16:59;13.98;;;10.13;;
46180;SDS011;58963;50.438;30.594;2022-10-16T06:22:18;13.18;;;9.88;;
46180;SDS011;58963;50.438;30.594;2022-10-16T06:27:39;11.73;;;8.98;;
46180;SDS011;58963;50.438;30.594;2022-10-16T06:32:59;15.70;;;10.05;;
46180;SDS011;58963;50.438;30.594;2022-10-16T06:38:18;14.20;;;10.00;;
46180;SDS011;58963;50.438;30.594;2022-10-16T06:43:40;13.55;;;8.90;;
46180;SDS011;58963;50.438;30.594;2022-10-16T06:49:00;21.65;;;11.02;;
46180;SDS011;58963;50.438;30.594;2022-10-16T06:54:29;13.82;;;11.02;;
46180;SDS011;58963;50.438;30.594;2022-10-16T06:59:48;17.45;;;9.77;;
46180;SDS011;58963;50.438;30.594;2022-10-16T07:05:07;10.38;;;7.65;;
46180;SDS011;58963;50.438;30.594;2022-10-16T07:10:27;10.95;;;7.82;;
46180;SDS011;58963;50.438;30.594;2022-10-16T07:15:46;11.90;;;8.57;;
46180;SDS011;58963;50.438;30.594;2022-10-16T07:21:10;13.88;;;7.82;;
46180;SDS011;58963;50.438;30.594;2022-10-16T07:26:32;12.15;;;8.55;;
46180;SDS011;58963;50.438;30.594;2022-10-16T07:31:53;11.73;;;7.47;;
46180;SDS011;58963;50.438;30.594;2022-10-16T07:37:12;10.38;;;8.25;;
46180;SDS011;58963;50.438;30.594;2022-10-16T07:42:31;10.73;;;7.55;;
46180;SDS011;58963;50.438;30.594;2022-10-16T07:47:51;9.90;;;8.25;;
46180;SDS011;58963;50.438;30.594;2022-10-16T07:53:10;12.60;;;8.60;;
46180;SDS011;58963;50.438;30.594;2022-10-16T07:58:30;11.35;;;7.50;;
46180;SDS011;58963;50.438;30.594;2022-10-16T08:03:58;12.05;;;7.90;;
46180;SDS011;58963;50.438;30.594;2022-10-16T08:09:17;10.65;;;7.47;;
46180;SDS011;58963;50.438;30.594;2022-10-16T08:14:36;11.27;;;6.82;;
46180;SDS011;58963;50.438;30.594;2022-10-16T08:19:57;10.20;;;8.30;;
46180;SDS011;58963;50.438;30.594;2022-10-16T08:25:16;8.73;;;6.70;;
46180;SDS011;58963;50.438;30.594;2022-10-16T08:30:36;8.75;;;6.82;;
46180;SDS011;58963;50.438;30.594;2022-10-16T08:36:16;8.93;;;6.40;;
46180;SDS011;58963;50.438;30.594;2022-10-16T08:47:25;9.40;;;6.75;;
46180;SDS011;58963;50.438;30.594;2022-10-16T08:53:15;7.07;;;5.47;;
46180;SDS011;58963;50.438;30.594;2022-10-16T08:58:48;8.15;;;5.82;;
46180;SDS011;58963;50.438;30.594;2022-10-16T09:04:26;9.65;;;5.10;;
46180;SDS011;58963;50.438;30.594;2022-10-16T09:10:17;9.45;;;5.55;;
46180;SDS011;58963;50.438;30.594;2022-10-16T09:15:48;6.97;;;4.80;;
46180;SDS011;58963;50.438;30.594;2022-10-16T09:21:18;8.00;;;4.97;;
46180;SDS011;58963;50.438;30.594;2022-10-16T09:26:42;6.45;;;5.28;;
46180;SDS011;58963;50.438;30.594;2022-10-16T09:32:12;6.60;;;4.65;;
46180;SDS011;58963;50.438;30.594;2022-10-16T09:37:34;7.18;;;4.03;;
46180;SDS011;58963;50.438;30.594;2022-10-16T09:42:56;5.05;;;3.95;;
46180;SDS011;58963;50.438;30.594;2022-10-16T09:48:25;5.38;;;4.25;;
46180;SDS011;58963;50.438;30.594;2022-10-16T09:53:53;5.13;;;4.45;;
46180;SDS011;58963;50.438;30.594;2022-10-16T09:59:33;5.40;;;4.68;;
46180;SDS011;58963;50.438;30.594;2022-10-16T10:04:53;4.65;;;3.58;;
46180;SDS011;58963;50.438;30.594;2022-10-16T10:10:19;4.80;;;3.72;;
46180;SDS011;58963;50.438;30.594;2022-10-16T10:15:42;4.35;;;3.60;;
46180;SDS011;58963;50.438;30.594;2022-10-16T10:21:02;6.70;;;4.30;;
46180;SDS011;58963;50.438;30.594;2022-10-16T10:31:52;6.45;;;4.18;;
46180;SDS011;58963;50.438;30.594;2022-10-16T10:43:20;6.22;;;3.85;;
46180;SDS011;58963;50.438;30.594;2022-10-16T10:49:04;6.28;;;4.47;;
46180;SDS011;58963;50.438;30.594;2022-10-16T11:00:17;7.50;;;4.90;;
46180;SDS011;58963;50.438;30.594;2022-10-16T11:06:08;8.27;;;4.38;;
46180;SDS011;58963;50.438;30.594;2022-10-16T11:11:55;6.80;;;5.18;;
46180;SDS011;58963;50.438;30.594;2022-10-16T11:17:26;5.30;;;4.00;;
46180;SDS011;58963;50.438;30.594;2022-10-16T11:28:14;5.25;;;4.13;;
46180;SDS011;58963;50.438;30.594;2022-10-16T11:39:27;6.85;;;3.45;;
46180;SDS011;58963;50.438;30.594;2022-10-16T11:50:54;8.63;;;4.25;;
46180;SDS011;58963;50.438;30.594;2022-10-16T11:56:19;12.90;;;9.27;;
46180;SDS011;58963;50.438;30.594;2022-10-16T12:01:41;9.32;;;7.53;;
46180;SDS011;58963;50.438;30.594;2022-10-16T12:07:18;6.10;;;3.55;;
46180;SDS011;58963;50.438;30.594;2022-10-16T12:12:47;7.03;;;4.13;;
46180;SDS011;58963;50.438;30.594;2022-10-16T12:18:07;5.78;;;4.00;;
46180;SDS011;58963;50.438;30.594;2022-10-16T12:23:49;5.60;;;4.50;;
46180;SDS011;58963;50.438;30.594;2022-10-16T12:29:13;8.13;;;4.43;;
46180;SDS011;58963;50.438;30.594;2022-10-16T12:34:50;8.00;;;4.57;;
46180;SDS011;58963;50.438;30.594;2022-10-16T12:40:13;8.15;;;4.03;;
46180;SDS011;58963;50.438;30.594;2022-10-16T13:26:19;7.63;;;4.93;;
46180;SDS011;58963;50.438;30.594;2022-10-16T13:31:47;4.82;;;3.97;;
46180;SDS011;58963;50.438;30.594;2022-10-16T13:37:16;6.38;;;3.97;;
46180;SDS011;58963;50.438;30.594;2022-10-16T13:42:41;7.47;;;4.05;;
46180;SDS011;58963;50.438;30.594;2022-10-16T13:48:05;7.03;;;4.53;;
46180;SDS011;58963;50.438;30.594;2022-10-16T13:53:29;6.97;;;4.15;;
46180;SDS011;58963;50.438;30.594;2022-10-16T13:59:00;7.75;;;4.10;;
46180;SDS011;58963;50.438;30.594;2022-10-16T14:04:41;10.18;;;3.75;;
46180;SDS011;58963;50.438;30.594;2022-10-16T14:10:03;12.65;;;3.85;;
46180;SDS011;58963;50.438;30.594;2022-10-16T14:15:25;13.52;;;7.53;;
46180;SDS011;58963;50.438;30.594;2022-10-16T14:20:45;8.65;;;4.18;;
46180;SDS011;58963;50.438;30.594;2022-10-16T14:31:30;7.75;;;4.28;;
46180;SDS011;58963;50.438;30.594;2022-10-16T14:36:51;17.63;;;4.85;;
46180;SDS011;58963;50.438;30.594;2022-10-16T14:42:16;10.27;;;6.70;;
46180;SDS011;58963;50.438;30.594;2022-10-16T14:47:45;12.10;;;6.10;;
46180;SDS011;58963;50.438;30.594;2022-10-16T14:53:11;8.18;;;4.88;;
46180;SDS011;58963;50.438;30.594;2022-10-16T14:58:31;11.20;;;4.60;;
46180;SDS011;58963;50.438;30.594;2022-10-16T15:03:50;12.07;;;6.35;;
46180;SDS011;58963;50.438;30.594;2022-10-16T15:09:11;21.48;;;11.52;;
46180;SDS011;58963;50.438;30.594;2022-10-16T15:14:30;16.48;;;7.20;;
46180;SDS011;58963;50.438;30.594;2022-10-16T15:25:52;26.23;;;17.20;;
46180;SDS011;58963;50.438;30.594;2022-10-16T15:31:13;22.20;;;14.77;;
46180;SDS011;58963;50.438;30.594;2022-10-16T15:36:33;22.05;;;11.70;;
46180;SDS011;58963;50.438;30.594;2022-10-16T15:41:55;26.42;;;15.27;;
46180;SDS011;58963;50.438;30.594;2022-10-16T15:47:14;27.13;;;16.88;;
46180;SDS011;58963;50.438;30.594;2022-10-16T15:52:34;8.63;;;5.55;;
46180;SDS011;58963;50.438;30.594;2022-10-16T15:57:53;11.65;;;6.55;;
46180;SDS011;58963;50.438;30.594;2022-10-16T16:03:12;13.07;;;6.65;;
46180;SDS011;58963;50.438;30.594;2022-10-16T17:09:34;14.77;;;9.07;;
46180;SDS011;58963;50.438;30.594;2022-10-16T17:14:54;13.18;;;8.48;;
46180;SDS011;58963;50.438;30.594;2022-10-16T17:20:13;19.75;;;12.48;;
46180;SDS011;58963;50.438;30.594;2022-10-16T17:25:34;21.13;;;15.18;;
46180;SDS011;58963;50.438;30.594;2022-10-16T17:30:55;29.88;;;16.92;;
46180;SDS011;58963;50.438;30.594;2022-10-16T17:36:14;29.40;;;18.50;;
46180;SDS011;58963;50.438;30.594;2022-10-16T17:41:34;71.35;;;46.53;;
46180;SDS011;58963;50.438;30.594;2022-10-16T17:47:07;33.70;;;21.92;;
46180;SDS011;58963;50.438;30.594;2022-10-16T17:52:26;21.67;;;14.90;;
46180;SDS011;58963;50.438;30.594;2022-10-16T17:59:24;20.05;;;13.10;;
46180;SDS011;58963;50.438;30.594;2022-10-16T18:10:45;23.55;;;16.35;;
46180;SDS011;58963;50.438;30.594;2022-10-16T18:16:42;26.55;;;17.85;;
46180;SDS011;58963;50.438;30.594;2022-10-16T18:22:02;28.73;;;17.95;;
46180;SDS011;58963;50.438;30.594;2022-10-16T18:27:22;32.40;;;21.33;;
46180;SDS011;58963;50.438;30.594;2022-10-16T18:32:41;34.78;;;21.27;;
46180;SDS011;58963;50.438;30.594;2022-10-16T18:38:01;34.38;;;21.15;;
46180;SDS011;58963;50.438;30.594;2022-10-16T18:43:20;32.45;;;20.33;;
46180;SDS011;58963;50.438;30.594;2022-10-16T18:48:39;31.50;;;18.35;;
46180;SDS011;58963;50.438;30.594;2022-10-16T18:54:05;28.50;;;18.45;;
46180;SDS011;58963;50.438;30.594;2022-10-16T18:59:31;31.02;;;19.58;;
46180;SDS011;58963;50.438;30.594;2022-10-16T19:04:50;29.83;;;18.73;;
46180;SDS011;58963;50.438;30.594;2022-10-16T19:10:10;30.77;;;19.27;;
46180;SDS011;58963;50.438;30.594;2022-10-16T19:15:29;28.70;;;16.95;;
46180;SDS011;58963;50.438;30.594;2022-10-16T19:20:49;25.02;;;16.92;;
46180;SDS011;58963;50.438;30.594;2022-10-16T19:26:09;23.35;;;16.05;;
46180;SDS011;58963;50.438;30.594;2022-10-16T19:31:33;21.88;;;15.07;;
46180;SDS011;58963;50.438;30.594;2022-10-16T19:36:53;20.90;;;13.13;;
46180;SDS011;58963;50.438;30.594;2022-10-16T19:42:12;21.58;;;13.55;;
46180;SDS011;58963;50.438;30.594;2022-10-16T19:47:31;20.98;;;12.75;;
46180;SDS011;58963;50.438;30.594;2022-10-16T19:52:55;16.77;;;11.00;;
46180;SDS011;58963;50.438;30.594;2022-10-16T19:58:17;15.68;;;10.27;;
46180;SDS011;58963;50.438;30.594;2022-10-16T20:03:46;20.05;;;11.48;;
46180;SDS011;58963;50.438;30.594;2022-10-16T20:15:42;18.35;;;10.98;;
46180;SDS011;58963;50.438;30.594;2022-10-16T20:21:07;16.60;;;11.50;;
46180;SDS011;58963;50.438;30.594;2022-10-16T20:26:27;18.70;;;11.25;;
46180;SDS011;58963;50.438;30.594;2022-10-16T20:31:46;17.55;;;11.90;;
46180;SDS011;58963;50.438;30.594;2022-10-16T20:37:06;20.20;;;13.45;;
46180;SDS011;58963;50.438;30.594;2022-10-16T20:42:25;17.75;;;12.52;;
46180;SDS011;58963;50.438;30.594;2022-10-16T20:47:44;19.80;;;12.40;;
46180;SDS011;58963;50.438;30.594;2022-10-16T20:53:03;19.48;;;12.85;;
46180;SDS011;58963;50.438;30.594;2022-10-16T20:58:23;18.88;;;11.70;;
46180;SDS011;58963;50.438;30.594;2022-10-16T21:03:43;17.95;;;12.32;;
46180;SDS011;58963;50.438;30.594;2022-10-16T21:09:07;19.23;;;12.32;;
46180;SDS011;58963;50.438;30.594;2022-10-16T21:14:27;18.17;;;11.85;;
46180;SDS011;58963;50.438;30.594;2022-10-16T21:19:47;17.95;;;11.82;;
46180;SDS011;58963;50.438;30.594;2022-10-16T21:25:06;17.23;;;11.93;;
46180;SDS011;58963;50.438;30.594;2022-10-16T21:30:26;17.30;;;11.63;;
46180;SDS011;58963;50.438;30.594;2022-10-16T21:35:45;17.08;;;10.82;;
46180;SDS011;58963;50.438;30.594;2022-10-16T21:41:11;16.02;;;10.98;;
46180;SDS011;58963;50.438;30.594;2022-10-16T21:46:39;15.57;;;10.65;;
46180;SDS011;58963;50.438;30.594;2022-10-16T21:51:59;19.35;;;11.88;;
46180;SDS011;58963;50.438;30.594;2022-10-16T21:57:19;18.38;;;11.45;;
46180;SDS011;58963;50.438;30.594;2022-10-16T22:02:38;15.50;;;10.75;;
46180;SDS011;58963;50.438;30.594;2022-10-16T22:07:57;18.58;;;11.65;;
46180;SDS011;58963;50.438;30.594;2022-10-16T22:13:16;18.90;;;12.35;;
46180;SDS011;58963;50.438;30.594;2022-10-16T22:18:36;20.65;;;12.88;;
46180;SDS011;58963;50.438;30.594;2022-10-16T22:23:57;19.45;;;12.50;;
46180;SDS011;58963;50.438;30.594;2022-10-16T22:29:17;23.52;;;15.43;;
46180;SDS011;58963;50.438;30.594;2022-10-16T22:34:36;23.92;;;15.75;;
46180;SDS011;58963;50.438;30.594;2022-10-16T22:39:55;27.85;;;15.52;;
46180;SDS011;58963;50.438;30.594;2022-10-16T22:45:14;20.00;;;13.80;;
46180;SDS011;58963;50.438;30.594;2022-10-16T22:50:34;21.65;;;14.60;;
46180;SDS011;58963;50.438;30.594;2022-10-16T22:55:53;19.88;;;13.73;;
46180;SDS011;58963;50.438;30.594;2022-10-16T23:01:19;20.75;;;11.60;;
46180;SDS011;58963;50.438;30.594;2022-10-16T23:06:40;17.30;;;10.95;;
46180;SDS011;58963;50.438;30.594;2022-10-16T23:12:00;16.85;;;11.70;;
46180;SDS011;58963;50.438;30.594;2022-10-16T23:17:19;19.10;;;12.77;;
46180;SDS011;58963;50.438;30.594;2022-10-16T23:22:39;19.60;;;13.57;;
46180;SDS011;58963;50.438;30.594;2022-10-16T23:27:58;23.58;;;15.18;;
46180;SDS011;58963;50.438;30.594;2022-10-16T23:33:17;21.95;;;13.85;;
46180;SDS011;58963;50.438;30.594;2022-10-16T23:38:36;26.52;;;15.02;;
46180;SDS011;58963;50.438;30.594;2022-10-16T23:43:57;25.23;;;14.20;;
46180;SDS011;58963;50.438;30.594;2022-10-16T23:49:16;22.30;;;14.07;;
46180;SDS011;58963;50.438;30.594;2022-10-16T23:54:35;23.13;;;13.68;;
46180;SDS011;58963;50.438;30.594;2022-10-16T23:59:54;19.58;;;13.02;;
